Time;durP1;ratioP1;P1;durP2;ratioP2;P2;SDS_P1;SDS_P2;PMS_P1;PMS_P2;Temp;Humidity;BMP_temperature;BMP_pressure;BME280_temperature;BME280_humidity;BME280_pressure;Samples;Min_cycle;Max_cycle;Signal;HPM_P1;HPM_P2
2021/01/15 00:01:27;;;;;;;139.60;66.50;;;;;;;-0.61;67.72;93482.11;1807958;79;21545;-58
2021/01/15 00:03:56;;;;;;;133.40;65.87;;;;;;;-0.62;67.95;93480.58;1807773;79;21194;-57
2021/01/15 00:06:27;;;;;;;129.32;62.20;;;;;;;-0.56;68.10;93481.65;1807782;79;21080;-56
2021/01/15 00:08:55;;;;;;;89.77;48.13;;;;;;;-0.47;68.08;93476.48;1807841;79;21102;-56
2021/01/15 00:11:30;;;;;;;126.95;65.95;;;;;;;-0.40;67.72;93480.45;1807780;79;21164;-60
2021/01/15 00:14:02;;;;;;;137.00;68.75;;;;;;;-0.45;67.67;93486.32;1807883;79;21152;-53
2021/01/15 00:16:33;;;;;;;161.52;81.22;;;;;;;-0.51;67.85;93491.98;1807817;79;22344;-57
2021/01/15 00:19:02;;;;;;;165.03;81.75;;;;;;;-0.56;67.89;93491.09;1807787;78;20963;-58
2021/01/15 00:21:32;;;;;;;193.65;92.72;;;;;;;-0.64;68.18;93501.80;1807912;79;21053;-57
2021/01/15 00:24:05;;;;;;;191.15;89.75;;;;;;;-0.66;68.25;93498.17;1807916;78;21502;-57
2021/01/15 00:26:34;;;;;;;165.22;86.05;;;;;;;-0.64;68.31;93504.50;1808016;79;21046;-59
2021/01/15 00:29:02;;;;;;;149.82;75.87;;;;;;;-0.58;68.40;93502.30;1807579;78;21474;-58
2021/01/15 00:31:34;;;;;;;144.22;78.30;;;;;;;-0.56;68.28;93507.30;1807746;79;21051;-57
2021/01/15 00:34:04;;;;;;;137.80;73.28;;;;;;;-0.52;68.35;93510.70;1807861;78;20947;-59
2021/01/15 00:36:33;;;;;;;140.28;71.95;;;;;;;-0.46;68.01;93505.02;1807833;79;21050;-58
2021/01/15 00:39:01;;;;;;;124.00;68.57;;;;;;;-0.46;68.17;93508.50;1807880;79;21085;-57
2021/01/15 00:41:36;;;;;;;108.78;59.03;;;;;;;-0.34;68.17;93506.60;1807794;78;21198;-59
2021/01/15 00:44:06;;;;;;;109.10;55.52;;;;;;;-0.21;67.64;93504.84;1807782;79;21093;-58
2021/01/15 00:46:34;;;;;;;125.95;59.67;;;;;;;-0.19;67.38;93507.89;1807789;79;21188;-57
2021/01/15 00:49:06;;;;;;;86.55;43.92;;;;;;;-0.16;67.40;93512.51;1807789;79;21121;-57
2021/01/15 00:51:38;;;;;;;73.52;41.20;;;;;;;-0.10;67.18;93512.21;1807958;79;21569;-58
2021/01/15 00:54:07;;;;;;;73.50;41.98;;;;;;;-0.03;66.90;93511.34;1807743;78;21201;-58
2021/01/15 00:56:36;;;;;;;64.35;36.30;;;;;;;0.04;66.72;93514.70;1807817;79;21572;-58
2021/01/15 00:59:06;;;;;;;52.27;31.40;;;;;;;0.03;66.45;93512.57;1807779;79;21160;-59
2021/01/15 01:01:37;;;;;;;61.23;35.28;;;;;;;0.08;66.39;93523.51;1806559;79;21116;-58
2021/01/15 01:04:07;;;;;;;71.05;38.67;;;;;;;0.09;66.14;93517.70;1807911;79;21136;-58
2021/01/15 01:06:35;;;;;;;90.35;49.60;;;;;;;0.07;66.13;93518.67;1807855;79;22149;-57
2021/01/15 01:09:04;;;;;;;93.37;52.80;;;;;;;0.09;66.15;93519.63;1807675;78;21081;-58
2021/01/15 01:11:33;;;;;;;121.55;63.92;;;;;;;0.07;66.11;93526.79;1807786;79;21058;-58
2021/01/15 01:14:03;;;;;;;121.37;67.92;;;;;;;0.02;66.21;93528.61;1807770;79;21073;-57
2021/01/15 01:16:32;;;;;;;140.25;75.57;;;;;;;-0.05;66.41;93527.20;1807788;79;21074;-59
2021/01/15 01:19:01;;;;;;;143.55;73.83;;;;;;;-0.11;66.74;93524.77;1807756;78;21200;-58
2021/01/15 01:21:32;;;;;;;113.03;62.03;;;;;;;-0.09;66.91;93525.12;1807725;79;21085;-58
2021/01/15 01:24:00;;;;;;;100.45;55.15;;;;;;;-0.12;67.18;93522.67;1807768;78;21061;-58
2021/01/15 01:26:29;;;;;;;99.15;52.05;;;;;;;-0.01;67.30;93524.60;1807759;79;21049;-57
2021/01/15 01:28:57;;;;;;;94.47;52.23;;;;;;;0.04;66.94;93527.61;1809543;78;21132;-58
2021/01/15 01:31:26;;;;;;;89.87;48.55;;;;;;;0.04;66.81;93536.32;1813462;79;21334;-57
2021/01/15 01:33:54;;;;;;;79.87;45.83;;;;;;;0.02;67.03;93529.97;1813422;78;21593;-58
2021/01/15 01:36:23;;;;;;;91.05;50.15;;;;;;;0.07;66.92;93530.09;1813486;78;21049;-58
2021/01/15 01:38:51;;;;;;;151.40;74.90;;;;;;;0.12;66.83;93534.45;1813579;79;21064;-57
2021/01/15 01:41:19;;;;;;;168.10;79.77;;;;;;;0.16;66.62;93533.02;1813486;79;21053;-57
2021/01/15 01:43:48;;;;;;;231.10;100.95;;;;;;;0.18;66.58;93531.45;1813499;78;21421;-58
2021/01/15 01:46:17;;;;;;;202.90;91.35;;;;;;;0.22;66.54;93535.45;1813377;78;21156;-57
2021/01/15 01:48:46;;;;;;;238.07;100.60;;;;;;;0.25;66.47;93534.03;1786758;79;21147;-58
2021/01/15 01:51:16;;;;;;;173.05;78.17;;;;;;;0.24;66.37;93535.20;1813463;79;21137;-57
2021/01/15 01:53:44;;;;;;;81.92;47.67;;;;;;;0.25;66.55;93534.62;1813481;78;21140;-58
2021/01/15 01:56:13;;;;;;;81.35;45.75;;;;;;;0.23;66.50;93532.92;1813479;79;21383;-57
2021/01/15 01:58:42;;;;;;;82.50;46.45;;;;;;;0.28;66.72;93536.51;1813390;79;21073;-58
2021/01/15 02:01:10;;;;;;;83.82;46.35;;;;;;;0.35;66.34;93535.80;1813480;79;21069;-57
2021/01/15 02:03:39;;;;;;;52.10;33.83;;;;;;;0.31;66.37;93542.44;1813556;78;21089;-58
2021/01/15 02:06:08;;;;;;;44.35;29.23;;;;;;;0.30;66.29;93539.56;1813499;79;21140;-57
2021/01/15 02:08:36;;;;;;;41.20;23.30;;;;;;;0.33;66.18;93541.44;1786737;79;22193;-58
2021/01/15 02:11:34;;;;;;;55.95;29.18;;;;;;;0.29;65.89;93538.03;1813495;79;21538;-58
2021/01/15 02:14:11;;;;;;;61.13;29.15;;;;;;;0.32;65.69;93544.75;1813485;79;21061;-57
2021/01/15 02:16:39;;;;;;;47.98;26.45;;;;;;;0.20;65.45;93543.97;1813658;78;21073;-57
2021/01/15 02:19:40;;;;;;;38.98;21.40;;;;;;;0.13;65.31;93539.26;1813763;79;21544;-59
2021/01/15 02:22:32;;;;;;;50.05;24.45;;;;;;;-0.08;65.18;93536.14;1813613;79;21250;-57
2021/01/15 02:25:22;;;;;;;39.80;21.50;;;;;;;-0.40;65.59;93543.33;1813701;77;21077;-58
2021/01/15 02:28:04;;;;;;;36.10;20.90;;;;;;;-0.55;65.84;93533.88;1813608;79;21077;-57
2021/01/15 02:30:44;;;;;;;32.48;19.70;;;;;;;-0.66;66.01;93542.72;1808733;78;21086;-58
2021/01/15 02:33:46;;;;;;;22.07;15.08;;;;;;;-0.74;66.27;93549.36;1807695;79;21057;-58
2021/01/15 02:36:35;;;;;;;21.03;15.57;;;;;;;-0.75;66.54;93553.23;1808239;79;22230;-58
2021/01/15 02:39:15;;;;;;;19.02;15.13;;;;;;;-0.65;66.56;93550.22;1807965;79;21500;-59
2021/01/15 02:41:43;;;;;;;15.80;12.07;;;;;;;-0.61;66.00;93550.97;1807908;79;21207;-57
2021/01/15 02:44:12;;;;;;;20.92;14.75;;;;;;;-0.74;65.69;93556.72;1807899;79;21061;-57
2021/01/15 02:46:53;;;;;;;23.50;15.75;;;;;;;-0.89;66.02;93556.70;1807999;78;21473;-57
2021/01/15 02:49:22;;;;;;;18.82;13.55;;;;;;;-0.95;66.09;93565.06;1807897;79;21529;-58
2021/01/15 02:51:50;;;;;;;19.32;14.10;;;;;;;-1.03;66.20;93563.59;1807920;78;21478;-58
2021/01/15 02:54:19;;;;;;;14.60;11.93;;;;;;;-1.01;66.11;93563.95;1807946;78;21050;-57
2021/01/15 02:56:49;;;;;;;17.82;14.15;;;;;;;-0.98;66.29;93560.48;1807872;78;21057;-58
2021/01/15 02:59:18;;;;;;;21.50;14.38;;;;;;;-0.99;66.01;93558.95;1807930;78;21153;-57
2021/01/15 03:01:57;;;;;;;27.30;17.48;;;;;;;-1.05;65.97;93564.02;1807882;79;21193;-57
2021/01/15 03:04:40;;;;;;;19.75;14.53;;;;;;;-1.07;66.00;93568.27;1807698;79;21155;-58
2021/01/15 03:07:09;;;;;;;29.32;18.85;;;;;;;-1.14;66.28;93565.66;1807394;79;21554;-57
2021/01/15 03:09:42;;;;;;;34.30;19.15;;;;;;;-1.14;66.23;93568.36;1807817;79;21216;-57
2021/01/15 03:12:10;;;;;;;36.73;20.27;;;;;;;-1.20;66.19;93568.60;1808090;79;21045;-57
2021/01/15 03:14:39;;;;;;;40.80;24.40;;;;;;;-1.31;66.14;93561.22;1807904;79;21395;-58
2021/01/15 03:17:09;;;;;;;31.93;21.30;;;;;;;-1.39;66.55;93564.56;1807803;78;21156;-58
2021/01/15 03:19:38;;;;;;;33.02;21.55;;;;;;;-1.42;66.50;93571.33;1807866;79;21096;-57
2021/01/15 03:22:18;;;;;;;24.72;16.50;;;;;;;-1.48;66.67;93579.68;1807812;79;21125;-57
2021/01/15 03:24:57;;;;;;;24.82;16.35;;;;;;;-1.46;67.00;93578.13;1779503;79;21125;-57
2021/01/15 03:27:52;;;;;;;29.15;18.52;;;;;;;-1.28;66.94;93577.94;1807905;79;21159;-57
2021/01/15 03:30:29;;;;;;;38.10;22.35;;;;;;;-1.11;66.54;93572.95;1807626;79;21065;-57
2021/01/15 03:33:02;;;;;;;42.70;23.83;;;;;;;-1.04;66.18;93580.95;1807880;79;21113;-57
2021/01/15 03:35:32;;;;;;;48.92;25.50;;;;;;;-1.06;66.09;93582.73;1807917;79;21069;-57
2021/01/15 03:38:06;;;;;;;36.48;20.88;;;;;;;-1.07;66.19;93585.24;1808002;79;21077;-58
2021/01/15 03:40:42;;;;;;;48.35;27.05;;;;;;;-1.01;65.91;93583.63;1808009;79;22041;-57
2021/01/15 03:43:13;;;;;;;39.05;22.17;;;;;;;-1.00;65.70;93586.50;1807765;79;21080;-57
2021/01/15 03:45:46;;;;;;;21.97;15.45;;;;;;;-0.95;65.26;93578.56;1808018;78;21457;-57
2021/01/15 03:48:14;;;;;;;;;;;;;;;-0.94;64.77;93582.79;1810553;79;21621;-57
2021/01/15 03:50:46;;;;;;;29.45;17.75;;;;;;;-1.02;64.54;93586.72;1807956;79;20217;-57
2021/01/15 03:53:15;;;;;;;27.90;18.67;;;;;;;-1.18;64.67;93586.52;1807989;79;22270;-57
2021/01/15 03:55:43;;;;;;;28.00;18.57;;;;;;;-1.22;64.68;93589.81;1807795;78;21081;-58
2021/01/15 03:58:11;;;;;;;28.40;17.12;;;;;;;-1.22;64.56;93588.47;1807867;79;21045;-58
2021/01/15 04:00:40;;;;;;;21.90;15.55;;;;;;;-1.35;64.57;93587.46;1807847;79;21487;-57
2021/01/15 04:03:08;;;;;;;21.33;14.55;;;;;;;-1.51;64.93;93596.66;1807859;79;21049;-57
2021/01/15 04:05:37;;;;;;;21.48;15.63;;;;;;;-1.62;65.08;93598.67;1807822;79;21374;-57
2021/01/15 04:08:06;;;;;;;22.35;14.98;;;;;;;-1.65;65.49;93596.77;1807777;79;21502;-57
2021/01/15 04:10:35;;;;;;;26.27;17.07;;;;;;;-1.53;65.72;93597.64;1807838;79;21140;-58
2021/01/15 04:13:03;;;;;;;27.77;19.50;;;;;;;-1.36;65.48;93610.20;1807827;79;21085;-58
2021/01/15 04:15:31;;;;;;;33.67;21.42;;;;;;;-1.27;65.49;93591.61;1807962;79;21065;-58
2021/01/15 04:18:00;;;;;;;33.15;20.90;;;;;;;-1.18;65.11;93598.66;1807828;79;21420;-57
2021/01/15 04:20:29;;;;;;;49.23;29.27;;;;;;;-1.20;65.08;93591.53;1807758;78;21133;-57
2021/01/15 04:22:57;;;;;;;28.35;20.12;;;;;;;-1.27;65.20;93597.00;1807836;79;21102;-57
2021/01/15 04:25:27;;;;;;;24.18;16.40;;;;;;;-1.28;65.08;93591.42;1807856;78;21576;-57
2021/01/15 04:27:55;;;;;;;35.40;22.17;;;;;;;-1.29;64.90;93591.25;1807912;79;21117;-58
2021/01/15 04:30:24;;;;;;;43.48;27.25;;;;;;;-1.34;64.90;93588.39;1810498;79;22316;-57
2021/01/15 04:32:52;;;;;;;38.10;24.02;;;;;;;-1.32;65.22;93596.09;1813429;78;21108;-57
2021/01/15 04:35:21;;;;;;;34.20;22.80;;;;;;;-1.31;65.16;93598.98;1813513;79;21054;-57
2021/01/15 04:37:51;;;;;;;29.40;19.67;;;;;;;-1.34;65.21;93603.83;1813488;79;21093;-58
2021/01/15 04:40:19;;;;;;;30.77;20.72;;;;;;;-1.37;65.07;93603.25;1813628;79;21493;-58
2021/01/15 04:42:47;;;;;;;35.88;22.37;;;;;;;-1.39;65.30;93601.54;1813517;79;21267;-58
2021/01/15 04:45:17;;;;;;;53.70;27.30;;;;;;;-1.37;65.01;93609.99;1813425;78;21129;-58
2021/01/15 04:47:48;;;;;;;47.00;26.27;;;;;;;-1.35;65.20;93607.69;1813478;79;21089;-58
2021/01/15 04:50:17;;;;;;;49.70;26.87;;;;;;;-1.29;65.09;93618.22;1813492;79;21092;-57
2021/01/15 04:52:49;;;;;;;55.65;27.87;;;;;;;-1.23;65.04;93616.61;1813573;79;21137;-57
2021/01/15 04:55:20;;;;;;;62.58;31.07;;;;;;;-1.20;64.87;93613.11;1813522;79;21362;-58
2021/01/15 04:57:52;;;;;;;88.87;41.68;;;;;;;-1.14;64.64;93608.83;1813410;78;21065;-57
2021/01/15 05:00:23;;;;;;;71.75;35.70;;;;;;;-1.17;64.53;93608.29;1813501;79;21081;-57
2021/01/15 05:02:52;;;;;;;58.87;34.17;;;;;;;-1.15;64.61;93616.74;1813687;79;21104;-58
2021/01/15 05:05:24;;;;;;;58.58;32.13;;;;;;;-1.09;64.57;93617.26;1813491;79;21048;-58
2021/01/15 05:08:14;;;;;;;104.15;51.45;;;;;;;-0.98;64.40;93623.30;1813559;79;21188;-58
2021/01/15 05:10:48;;;;;;;83.78;42.23;;;;;;;-0.88;64.30;93616.25;1813425;79;21077;-58
2021/01/15 05:13:17;;;;;;;40.28;25.05;;;;;;;-0.79;63.75;93617.30;1813510;78;21153;-58
2021/01/15 05:15:48;;;;;;;32.08;21.73;;;;;;;-0.85;63.63;93630.29;1813555;79;21588;-62
2021/01/15 05:18:19;;;;;;;30.90;19.30;;;;;;;-0.95;63.63;93629.83;1813528;78;21157;-59
2021/01/15 05:20:48;;;;;;;25.77;18.32;;;;;;;-1.06;63.73;93623.77;1813549;79;21530;-59
2021/01/15 05:23:17;;;;;;;36.83;23.75;;;;;;;-1.22;63.76;93631.63;1813496;79;21136;-59
2021/01/15 05:25:48;;;;;;;37.28;23.50;;;;;;;-1.40;64.09;93637.77;1813451;77;21132;-58
2021/01/15 05:28:21;;;;;;;43.58;27.42;;;;;;;-1.46;64.47;93635.32;1813416;79;21124;-60
2021/01/15 05:30:57;;;;;;;;;;;;;;;-1.47;64.56;93645.92;1816045;78;21102;-59
2021/01/15 05:33:27;;;;;;;50.38;30.48;;;;;;;-1.52;64.78;93643.06;1813510;79;21206;-59
2021/01/15 05:35:55;;;;;;;50.38;30.77;;;;;;;-1.47;64.90;93648.02;1813415;79;21120;-58
2021/01/15 05:38:24;;;;;;;43.87;28.47;;;;;;;-1.38;64.85;93644.87;1813477;78;21077;-58
2021/01/15 05:40:55;;;;;;;47.25;28.67;;;;;;;-1.31;64.74;93650.22;1813430;79;21054;-57
2021/01/15 05:43:32;;;;;;;;;;;;;;;-1.28;64.75;93652.89;1816181;79;21131;-58
2021/01/15 05:46:21;;;;;;;43.63;26.10;;;;;;;-1.16;64.61;93653.73;1813575;78;21380;-58
2021/01/15 05:48:51;;;;;;;49.13;29.87;;;;;;;-1.05;64.41;93659.03;1813176;79;21156;-57
2021/01/15 05:51:28;;;;;;;56.88;33.48;;;;;;;-0.94;64.05;93661.05;1813797;79;21505;-57
2021/01/15 05:54:00;;;;;;;42.75;27.45;;;;;;;-0.96;63.86;93666.84;1813603;79;21121;-59
2021/01/15 05:56:45;;;;;;;37.83;25.70;;;;;;;-0.98;63.99;93669.17;1813733;78;21089;-59
2021/01/15 05:59:20;;;;;;;40.63;25.20;;;;;;;-1.02;63.92;93672.49;1813665;79;21264;-57
2021/01/15 06:01:59;;;;;;;46.10;28.45;;;;;;;-1.09;63.97;93673.14;1813703;78;21526;-58
2021/01/15 06:04:36;;;;;;;42.85;26.90;;;;;;;-1.12;63.88;93677.39;1813590;78;21152;-58
2021/01/15 06:07:18;;;;;;;68.80;41.40;;;;;;;-1.18;63.67;93678.25;1813634;79;21148;-58
2021/01/15 06:09:48;;;;;;;54.08;34.95;;;;;;;-1.22;63.92;93677.48;1813620;79;21164;-58
2021/01/15 06:12:19;;;;;;;81.63;48.10;;;;;;;-1.22;63.79;93674.78;1813701;79;22112;-58
2021/01/15 06:14:56;;;;;;;73.90;43.35;;;;;;;-1.38;63.99;93669.92;1813624;79;21568;-58
2021/01/15 06:17:22;;;;;;;54.27;31.60;;;;;;;-1.42;64.38;93668.41;1813489;79;21087;-59
2021/01/15 06:19:54;;;;;;;66.62;42.75;;;;;;;-1.44;64.39;93672.09;1813603;79;21049;-58
2021/01/15 06:22:44;;;;;;;61.80;40.23;;;;;;;-1.48;64.55;93675.40;1813705;79;21081;-60
2021/01/15 06:25:34;;;;;;;59.35;35.05;;;;;;;-1.44;64.65;93679.61;1813531;77;21369;-58
2021/01/15 06:28:06;;;;;;;75.95;44.65;;;;;;;-1.33;64.69;93682.22;1813644;78;21085;-59
2021/01/15 06:30:36;;;;;;;57.85;36.20;;;;;;;-1.26;64.34;93687.55;1813408;79;21160;-59
2021/01/15 06:33:12;;;;;;;60.48;35.15;;;;;;;-1.25;64.20;93691.77;1813669;79;21592;-58
2021/01/15 06:35:44;;;;;;;78.30;45.10;;;;;;;-1.34;64.11;93692.83;1813571;78;21045;-59
2021/01/15 06:38:18;;;;;;;67.72;38.28;;;;;;;-1.39;64.54;93699.97;1813620;79;21364;-59
2021/01/15 06:40:50;;;;;;;61.95;36.53;;;;;;;-1.31;64.47;93701.47;1813630;78;21160;-59
2021/01/15 06:43:28;;;;;;;60.65;36.08;;;;;;;-1.32;64.31;93698.59;1813766;79;21561;-58
2021/01/15 06:45:59;;;;;;;63.80;38.48;;;;;;;-1.37;64.31;93716.52;1813574;79;21172;-59
2021/01/15 06:48:36;;;;;;;47.00;29.60;;;;;;;-1.40;64.50;93717.31;1813692;79;21151;-59
2021/01/15 06:51:05;;;;;;;71.75;39.23;;;;;;;-1.31;64.27;93716.30;1813623;79;22027;-59
2021/01/15 06:53:37;;;;;;;67.53;36.68;;;;;;;-1.29;63.97;93722.06;1813324;79;21160;-59
2021/01/15 06:56:06;;;;;;;53.60;32.63;;;;;;;-1.32;63.59;93736.34;1813026;79;21632;-57
2021/01/15 06:58:41;;;;;;;36.95;25.35;;;;;;;-1.45;63.57;93745.48;1813464;78;21623;-57
2021/01/15 07:01:38;;;;;;;38.13;23.15;;;;;;;-1.50;63.85;93748.58;1813542;79;21102;-58
2021/01/15 07:04:29;;;;;;;40.10;26.12;;;;;;;-1.49;63.87;93748.77;1813476;78;21486;-59
2021/01/15 07:07:15;;;;;;;41.10;27.95;;;;;;;-1.49;64.08;93761.50;1813389;78;21157;-58
2021/01/15 07:09:46;;;;;;;46.13;29.52;;;;;;;-1.42;64.14;93761.45;1813506;79;21475;-59
2021/01/15 07:12:21;;;;;;;38.33;25.92;;;;;;;-1.29;63.81;93767.91;1813491;79;21060;-58
2021/01/15 07:15:00;;;;;;;44.20;26.68;;;;;;;-1.23;63.29;93773.06;1813181;79;21144;-58
2021/01/15 07:17:43;;;;;;;32.93;20.62;;;;;;;-1.34;63.21;93769.69;1771160;79;22309;-59
2021/01/15 07:20:15;;;;;;;27.90;18.50;;;;;;;-1.48;63.03;93786.70;1784003;79;21105;-61
2021/01/15 07:23:02;;;;;;;28.35;19.10;;;;;;;-1.48;63.00;93781.91;1817003;77;21187;-59
2021/01/15 07:25:30;;;;;;;40.08;25.68;;;;;;;-1.40;62.92;93792.26;1812685;79;21917;-59
2021/01/15 07:27:59;;;;;;;44.53;27.58;;;;;;;-1.37;62.76;93798.20;1758690;80;21148;-57
2021/01/15 07:30:30;;;;;;;79.07;45.58;;;;;;;-1.35;62.66;93790.48;1737106;82;21398;-58
2021/01/15 07:32:58;;;;;;;56.42;30.90;;;;;;;-1.27;62.60;93796.03;1747851;82;21118;-57
2021/01/15 07:35:29;;;;;;;65.90;43.17;;;;;;;-1.28;62.40;93797.20;1767224;81;21164;-57
2021/01/15 07:38:14;;;;;;;66.28;40.10;;;;;;;-1.30;62.34;93802.80;1765248;81;21740;-58
2021/01/15 07:40:43;;;;;;;86.53;49.25;;;;;;;-1.33;62.37;93795.50;1768795;79;21063;-59
2021/01/15 07:43:30;;;;;;;135.72;69.25;;;;;;;-1.31;62.47;93799.91;1741795;82;21155;-58
2021/01/15 07:46:03;;;;;;;130.22;65.72;;;;;;;-1.31;62.31;93786.42;1766340;81;21093;-59
2021/01/15 07:48:32;;;;;;;52.13;30.35;;;;;;;-1.31;62.32;93793.17;1767320;79;21518;-57
2021/01/15 07:51:04;;;;;;;62.23;34.13;;;;;;;-1.31;62.18;93801.27;1767151;81;21083;-59
2021/01/15 07:53:40;;;;;;;57.25;34.30;;;;;;;-1.25;61.84;93805.84;1696766;81;21499;-57
2021/01/15 07:56:10;;;;;;;54.85;33.98;;;;;;;-1.19;61.73;93803.47;1756332;79;21363;-58
2021/01/15 07:58:45;;;;;;;39.55;25.20;;;;;;;-1.07;61.70;93811.11;1776739;79;21202;-59
2021/01/15 08:01:18;;;;;;;60.75;38.00;;;;;;;-0.99;61.52;93828.80;1789408;79;21082;-58
2021/01/15 08:03:52;;;;;;;43.02;28.17;;;;;;;-0.88;60.81;93821.38;1736989;82;21124;-58
2021/01/15 08:06:20;;;;;;;44.35;28.38;;;;;;;-0.78;60.45;93827.30;1749980;79;21092;-58
2021/01/15 08:09:05;;;;;;;41.05;25.95;;;;;;;-0.78;60.70;93825.34;1769706;80;21629;-59
2021/01/15 08:11:36;;;;;;;51.25;29.75;;;;;;;-0.75;60.77;93825.90;1744442;81;21103;-59
2021/01/15 08:14:15;;;;;;;44.23;27.65;;;;;;;-0.66;60.92;93821.39;1767264;81;21218;-59
2021/01/15 08:16:45;;;;;;;55.35;34.25;;;;;;;-0.51;60.63;93823.59;1751006;81;21232;-60
2021/01/15 08:19:18;;;;;;;44.58;29.30;;;;;;;-0.55;60.25;93818.78;1736357;81;21075;-57
2021/01/15 08:21:46;;;;;;;46.98;30.10;;;;;;;-0.60;60.35;93823.88;1758427;81;22169;-58
2021/01/15 08:24:14;;;;;;;44.13;27.95;;;;;;;-0.59;60.15;93824.05;1758369;80;21210;-61
2021/01/15 08:26:57;;;;;;;40.70;23.65;;;;;;;-0.56;60.06;93831.34;1752965;81;21130;-56
2021/01/15 08:29:30;;;;;;;30.68;21.02;;;;;;;-0.57;59.96;93836.57;1755286;81;21173;-59
2021/01/15 08:31:59;;;;;;;32.40;20.70;;;;;;;-0.54;59.80;93831.72;1746179;80;21171;-58
2021/01/15 08:34:32;;;;;;;31.57;20.25;;;;;;;-0.47;59.46;93831.08;1737379;81;22284;-59
2021/01/15 08:37:02;;;;;;;18.82;13.75;;;;;;;-0.41;59.10;93834.12;1730673;82;21191;-59
2021/01/15 08:39:50;;;;;;;17.00;12.60;;;;;;;-0.30;58.26;93850.98;1724374;82;21492;-60
2021/01/15 08:42:19;;;;;;;14.03;11.45;;;;;;;-0.27;57.52;93843.42;1739641;82;21120;-61
2021/01/15 08:44:49;;;;;;;17.45;12.23;;;;;;;-0.41;56.91;93856.48;1758154;81;21121;-58
2021/01/15 08:47:18;;;;;;;19.48;13.25;;;;;;;-0.49;56.84;93853.67;1757969;81;22075;-59
2021/01/15 08:49:55;;;;;;;24.77;16.32;;;;;;;-0.51;56.66;93857.92;1759072;81;22250;-58
2021/01/15 08:52:26;;;;;;;29.15;16.95;;;;;;;-0.46;56.69;93856.14;1760010;80;21154;-57
2021/01/15 08:54:54;;;;;;;31.87;18.55;;;;;;;-0.41;56.37;93859.78;1757729;81;21054;-59
2021/01/15 08:57:28;;;;;;;34.92;18.30;;;;;;;-0.41;55.98;93861.13;1739096;82;21060;-56
2021/01/15 08:59:58;;;;;;;33.30;19.25;;;;;;;-0.52;55.51;93857.73;1735898;82;21157;-58
2021/01/15 09:02:26;;;;;;;33.20;19.67;;;;;;;-0.57;55.67;93865.67;1731944;82;21169;-56
2021/01/15 09:04:56;;;;;;;28.23;17.25;;;;;;;-0.53;55.51;93867.01;1759459;80;21166;-58
2021/01/15 09:07:26;;;;;;;18.30;12.00;;;;;;;-0.57;55.32;93860.88;1759383;81;21196;-58
2021/01/15 09:09:54;;;;;;;20.57;14.25;;;;;;;-0.65;55.36;93863.43;1759208;81;21057;-57
2021/01/15 09:12:24;;;;;;;12.78;10.68;;;;;;;-0.73;55.47;93870.06;1756744;80;22102;-58
2021/01/15 09:14:52;;;;;;;16.97;12.15;;;;;;;-0.83;55.17;93869.53;1692163;82;21082;-59
2021/01/15 09:17:25;;;;;;;15.78;10.82;;;;;;;-0.97;55.29;93873.11;1738977;82;21126;-61
2021/01/15 09:19:55;;;;;;;32.90;18.23;;;;;;;-1.02;55.42;93876.80;1734965;82;21105;-60
2021/01/15 09:22:28;;;;;;;26.93;15.45;;;;;;;-1.00;55.70;93859.66;1738419;82;21103;-61
2021/01/15 09:24:55;;;;;;;18.37;13.28;;;;;;;-0.96;55.64;93875.23;1748207;80;22152;-61
2021/01/15 09:27:24;;;;;;;18.52;12.70;;;;;;;-0.98;55.90;93868.13;1741535;82;21164;-61
2021/01/15 09:29:53;;;;;;;21.77;14.45;;;;;;;-0.90;55.60;93861.50;1735082;82;21562;-61
2021/01/15 09:32:23;;;;;;;18.62;12.50;;;;;;;-0.83;55.74;93868.97;1742133;81;21067;-59
2021/01/15 09:34:52;;;;;;;22.35;14.03;;;;;;;-0.78;55.58;93867.19;1740992;81;21086;-61
2021/01/15 09:37:22;;;;;;;23.55;14.30;;;;;;;-0.72;55.58;93879.69;1741594;81;22283;-58
2021/01/15 09:39:51;;;;;;;25.15;15.58;;;;;;;-0.76;55.43;93885.11;1739527;82;21115;-58
2021/01/15 09:42:20;;;;;;;15.25;11.10;;;;;;;-0.68;55.05;93882.56;1726097;82;21079;-57
2021/01/15 09:44:49;;;;;;;15.75;11.88;;;;;;;-0.68;54.48;93881.20;1730992;82;21216;-59
2021/01/15 09:47:18;;;;;;;16.23;11.08;;;;;;;-0.68;53.68;93884.48;1714533;82;21187;-59
2021/01/15 09:49:49;;;;;;;18.92;12.98;;;;;;;-0.80;54.18;93884.97;1724490;82;21486;-57
2021/01/15 09:52:18;;;;;;;12.40;10.68;;;;;;;-0.85;54.68;93888.06;1740656;82;21146;-59
2021/01/15 09:54:47;;;;;;;15.43;12.33;;;;;;;-0.86;54.61;93889.23;1740249;82;21162;-57
2021/01/15 09:57:17;;;;;;;14.00;11.43;;;;;;;-0.93;54.99;93894.09;1734533;82;21190;-58
2021/01/15 09:59:48;;;;;;;12.95;10.03;;;;;;;-1.00;55.09;93889.34;1735761;81;21210;-58
2021/01/15 10:02:17;;;;;;;14.40;10.90;;;;;;;-1.05;55.36;93893.78;1722327;81;21383;-58
2021/01/15 10:04:45;;;;;;;18.25;12.43;;;;;;;-1.14;54.97;93886.72;1729397;82;21146;-59
2021/01/15 10:07:14;;;;;;;15.50;10.88;;;;;;;-1.25;55.04;93885.99;1717267;82;21095;-59
2021/01/15 10:09:42;;;;;;;11.18;9.98;;;;;;;-1.26;55.18;93887.94;1730431;82;21078;-58
2021/01/15 10:12:12;;;;;;;14.87;11.30;;;;;;;-1.21;54.71;93888.86;1742265;82;21071;-58
2021/01/15 10:14:41;;;;;;;13.62;11.20;;;;;;;-1.21;55.15;93891.56;1742054;82;21366;-59
2021/01/15 10:17:10;;;;;;;15.18;10.88;;;;;;;-1.16;54.88;93891.73;1731715;82;21920;-58
2021/01/15 10:19:40;;;;;;;11.50;8.80;;;;;;;-1.16;55.07;93896.54;1719337;82;22039;-57
2021/01/15 10:22:11;;;;;;;13.13;10.23;;;;;;;-1.17;54.82;93887.51;1732800;81;21063;-60
2021/01/15 10:24:39;;;;;;;15.88;10.65;;;;;;;-1.17;54.94;93895.60;1729574;82;21567;-57
2021/01/15 10:27:08;;;;;;;12.43;9.78;;;;;;;-1.19;54.81;93897.33;1734619;82;21356;-59
2021/01/15 10:29:36;;;;;;;16.20;11.38;;;;;;;-1.19;54.42;93885.19;1689580;83;21455;-58
2021/01/15 10:32:05;;;;;;;11.57;9.83;;;;;;;-1.22;54.92;93888.68;1726450;82;21174;-59
2021/01/15 10:34:35;;;;;;;11.68;9.58;;;;;;;-1.19;54.45;93885.76;1731909;82;21891;-58
2021/01/15 10:37:04;;;;;;;12.00;9.63;;;;;;;-1.23;54.42;93893.11;1732692;82;21466;-58
2021/01/15 10:39:32;;;;;;;11.12;8.83;;;;;;;-1.26;54.43;93888.50;1721475;82;21619;-58
2021/01/15 10:42:01;;;;;;;11.53;9.70;;;;;;;-1.25;54.46;93893.52;1722520;82;21149;-59
2021/01/15 10:44:32;;;;;;;12.63;9.85;;;;;;;-1.18;54.60;93885.97;1706484;82;21213;-57
2021/01/15 10:47:02;;;;;;;11.93;8.90;;;;;;;-1.03;54.35;93892.23;1723914;81;21103;-59
2021/01/15 10:49:31;;;;;;;16.15;10.40;;;;;;;-0.91;54.07;93883.69;1708441;82;21182;-58
2021/01/15 10:52:00;;;;;;;14.70;10.28;;;;;;;-0.92;54.02;93890.22;1723233;82;21391;-59
2021/01/15 10:54:29;;;;;;;13.05;10.25;;;;;;;-0.93;53.37;93894.09;1732927;82;21209;-58
2021/01/15 10:56:57;;;;;;;13.35;11.10;;;;;;;-1.02;54.02;93887.59;1724343;82;21596;-59
2021/01/15 10:59:26;;;;;;;12.73;9.98;;;;;;;-1.11;54.24;93887.27;1735425;82;21197;-58
2021/01/15 11:01:55;;;;;;;16.37;10.10;;;;;;;-1.18;54.13;93895.42;1730217;82;21558;-61
2021/01/15 11:04:24;;;;;;;13.40;11.30;;;;;;;-1.22;54.37;93895.98;1732770;81;21377;-58
2021/01/15 11:06:55;;;;;;;13.28;10.00;;;;;;;-1.21;54.14;93892.91;1727131;82;21181;-60
2021/01/15 11:09:24;;;;;;;13.00;9.80;;;;;;;-1.16;53.98;93885.75;1726225;82;21408;-59
2021/01/15 11:11:56;;;;;;;12.40;9.45;;;;;;;-1.15;54.02;93887.28;1727678;80;21181;-62
2021/01/15 11:14:26;;;;;;;11.20;9.53;;;;;;;-1.17;53.74;93885.56;1740466;82;21210;-57
2021/01/15 11:16:58;;;;;;;17.95;12.03;;;;;;;-1.17;53.66;93888.86;1740952;81;22012;-61
2021/01/15 11:19:27;;;;;;;13.40;11.00;;;;;;;-1.22;53.48;93885.20;1741742;82;21224;-57
2021/01/15 11:21:55;;;;;;;13.93;10.70;;;;;;;-1.23;53.64;93885.02;1722370;82;21186;-58
2021/01/15 11:24:24;;;;;;;21.68;11.85;;;;;;;-1.18;53.48;93889.42;1740051;81;21239;-59
2021/01/15 11:26:53;;;;;;;17.62;11.80;;;;;;;-1.09;53.55;93890.34;1741728;82;21186;-58
2021/01/15 11:29:22;;;;;;;12.60;9.23;;;;;;;-1.05;53.34;93885.69;1741126;81;21445;-58
2021/01/15 11:31:51;;;;;;;13.15;10.03;;;;;;;-0.98;52.66;93888.36;1741608;82;22287;-59
2021/01/15 11:34:21;;;;;;;12.90;9.85;;;;;;;-1.13;53.09;93882.86;1745802;82;21157;-60
2021/01/15 11:36:49;;;;;;;15.18;10.10;;;;;;;-1.20;53.29;93882.88;1766733;81;21567;-59
2021/01/15 11:39:18;;;;;;;13.22;9.90;;;;;;;-1.20;53.03;93878.83;1766102;81;21132;-56
2021/01/15 11:41:54;;;;;;;15.38;11.28;;;;;;;-1.23;53.05;93872.87;1765959;81;21662;-59